Auburn, NE

9:14 PM CDT on July 23, 2016 (GMT -0500)
The Nincehelser Farm | | Change Station

Elev 1061 ft 40.50 °N, 95.78 °W | Updated 1 second ago

Clear
Clear
81.7 °F
Feels Like 89 °F
N
5.0
Wind Variable Wind from SSE
Gusts 10.0 mph

Today
High -- | Low -- °F
--% Chance of Precip.
Yesterday
High -- | Low -- °F
Precip. -- in
Pressure 29.80 in
Visibility 10.0 miles
Clouds Clear
Heat Index 89 °F
Dew Point 77 °F
Humidity 84%
Rainfall 0.02 in
Snow Depth Not available.
6:13 AM 8:46 PM
Waning Gibbous, 80% visible
METAR KAFK 240155Z AUTO 18007KT 10SM CLR 27/25 A2980 RMK AO2 T02730249
Pressure 29.80 in
Visibility 10.0 miles
Clouds Clear
Heat Index 89 °F
Dew Point 77 °F
Humidity 84%
Rainfall 0.02 in
Snow Depth Not available.
6:13 AM 8:46 PM
Waning Gibbous, 80% visible
METAR KAFK 240155Z AUTO 18007KT 10SM CLR 27/25 A2980 RMK AO2 T02730249

10-Day Weather Forecast

Almanac

Astronomy

Jul. 23, 2016 Rise Set
Actual Time
Civil Twilight
Nautical Twilight
Astronomical Twilight
Moon
Length of Visible Light
Length of Day
Tomorrow will be .
, % of the Moon is Illuminated

Today's Extremes

State Highs State Lows

Community

WunderPhotos

Upload Photos

1,927,000 photos uploaded!

WunderBlog® & News

Nearby

Air Quality

  Air Quality AQ Index Pollutant
Not available.

Snow Depth

Station Depth Elevation

Earthquake Activity

City Distance Mag. Time & Date
Minimum magnitude displayed is 2.5.

Coastal Water Temperatures

Place Temperature

Stations

Nearby Weather Stations

Station Location Temp. Windchill Dew Point Humidity Wind Precip. Elev Updated Type
                   

Watches & Warnings

There are currently no watches in effect.